createdAt,value
2022-12-15T00:02:30.283Z,63.22
2022-12-15T00:05:17.859Z,63.05
2022-12-15T00:08:05.160Z,63.20
2022-12-15T00:10:52.509Z,63.09
2022-12-15T00:13:39.886Z,63.08
2022-12-15T00:24:14.971Z,64.14
2022-12-15T00:27:02.021Z,64.97
2022-12-15T00:29:49.558Z,65.58
2022-12-15T00:32:36.651Z,65.51
2022-12-15T00:35:23.934Z,65.36
2022-12-15T00:38:10.859Z,65.33
2022-12-15T00:40:39.152Z,65.06
2022-12-15T00:43:12.293Z,65.01
2022-12-15T00:45:59.663Z,64.88
2022-12-15T00:48:27.998Z,65.59
2022-12-15T00:50:56.324Z,66.26
2022-12-15T00:53:43.939Z,65.90
2022-12-15T00:56:30.839Z,65.43
2022-12-15T00:59:17.813Z,66.12
2022-12-15T01:02:05.436Z,66.67
2022-12-15T01:04:52.403Z,66.35
2022-12-15T01:07:39.235Z,66.04
2022-12-15T01:10:26.167Z,66.26
2022-12-15T01:13:13.079Z,65.99
2022-12-15T01:16:00.135Z,66.05
2022-12-15T01:18:49.557Z,65.57
2022-12-15T01:21:20.801Z,65.83
2022-12-15T01:23:53.243Z,65.78
2022-12-15T01:26:21.628Z,65.80
2022-12-15T01:28:49.880Z,65.73
2022-12-15T01:31:18.235Z,66.01
2022-12-15T01:33:46.507Z,66.11
2022-12-15T01:36:15.220Z,65.69
2022-12-15T01:38:43.892Z,65.75
2022-12-15T01:41:13.367Z,65.83
2022-12-15T01:43:41.823Z,66.19
2022-12-15T01:46:18.381Z,66.06
2022-12-15T01:49:00.237Z,66.21
2022-12-15T01:51:37.833Z,66.31
2022-12-15T01:54:32.513Z,65.81
2022-12-15T01:57:07.989Z,65.84
2022-12-15T01:59:43.547Z,66.08
2022-12-15T02:02:15.076Z,65.99
2022-12-15T02:04:46.218Z,66.01
2022-12-15T02:07:15.255Z,66.12
2022-12-15T02:09:47.194Z,66.10
2022-12-15T02:12:55.244Z,66.16
2022-12-15T02:15:42.976Z,66.02
2022-12-15T02:18:17.357Z,66.48
2022-12-15T02:21:17.859Z,65.99
2022-12-15T02:24:08.418Z,66.63
2022-12-15T02:26:51.783Z,66.52
2022-12-15T02:29:38.585Z,66.58
2022-12-15T02:32:11.585Z,66.83
2022-12-15T02:34:46.906Z,66.77
2022-12-15T02:37:22.789Z,66.87
2022-12-15T02:39:51.114Z,66.81
2022-12-15T02:42:19.842Z,67.02
2022-12-15T02:45:20.157Z,67.44
2022-12-15T02:48:05.754Z,66.96
2022-12-15T02:50:52.776Z,66.96
2022-12-15T02:53:56.574Z,66.79
2022-12-15T02:56:56.556Z,66.47
2022-12-15T02:59:36.397Z,66.82
2022-12-15T03:02:08.934Z,67.69
2022-12-15T03:04:37.502Z,67.79
2022-12-15T03:07:09.488Z,67.73
2022-12-15T03:09:37.810Z,67.18
2022-12-15T03:12:06.510Z,66.89
2022-12-15T03:14:34.805Z,67.39
2022-12-15T03:17:04.388Z,67.15
2022-12-15T03:19:32.702Z,67.20
2022-12-15T03:22:01.051Z,67.16
2022-12-15T03:24:29.310Z,66.82
2022-12-15T03:26:57.658Z,67.11
2022-12-15T03:29:25.937Z,67.25
2022-12-15T03:31:54.249Z,67.21
2022-12-15T03:34:22.808Z,67.24
2022-12-15T03:36:51.130Z,66.98
2022-12-15T03:39:19.578Z,66.94
2022-12-15T03:41:47.882Z,66.69
2022-12-15T03:44:16.133Z,67.11
2022-12-15T03:46:44.441Z,67.09
2022-12-15T03:49:12.699Z,67.11
2022-12-15T03:51:40.949Z,67.06
2022-12-15T03:54:09.267Z,67.13
2022-12-15T03:56:37.534Z,67.04
2022-12-15T03:59:06.052Z,67.03
2022-12-15T04:01:36.100Z,66.83
2022-12-15T04:04:05.454Z,66.63
2022-12-15T04:06:33.849Z,66.96
2022-12-15T04:09:02.086Z,67.17
2022-12-15T04:11:30.780Z,66.99
